sensor_id;sensor_type;location;lat;lon;timestamp;temperature;humidity
64111;DHT22;50401;48.188;11.566;2023-06-01T00:01:50;17.65;61.51
64111;DHT22;50401;48.188;11.566;2023-06-01T00:04:16;17.62;61.71
64111;DHT22;50401;48.188;11.566;2023-06-01T00:06:42;17.54;61.92
64111;DHT22;50401;48.188;11.566;2023-06-01T00:09:08;17.51;62.04
64111;DHT22;50401;48.188;11.566;2023-06-01T00:11:33;17.52;62.19
64111;DHT22;50401;48.188;11.566;2023-06-01T00:13:58;17.45;62.17
64111;DHT22;50401;48.188;11.566;2023-06-01T00:16:24;17.41;62.39
64111;DHT22;50401;48.188;11.566;2023-06-01T00:18:50;17.45;62.32
64111;DHT22;50401;48.188;11.566;2023-06-01T00:21:19;17.37;62.50
64111;DHT22;50401;48.188;11.566;2023-06-01T00:23:44;17.30;62.79
64111;DHT22;50401;48.188;11.566;2023-06-01T00:26:11;17.26;62.89
64111;DHT22;50401;48.188;11.566;2023-06-01T00:28:36;17.31;62.88
64111;DHT22;50401;48.188;11.566;2023-06-01T00:31:02;17.31;62.78
64111;DHT22;50401;48.188;11.566;2023-06-01T00:33:27;17.38;62.66
64111;DHT22;50401;48.188;11.566;2023-06-01T00:35:53;17.35;62.73
64111;DHT22;50401;48.188;11.566;2023-06-01T00:38:18;17.26;62.90
64111;DHT22;50401;48.188;11.566;2023-06-01T00:40:43;17.22;62.99
64111;DHT22;50401;48.188;11.566;2023-06-01T00:43:09;17.30;62.85
64111;DHT22;50401;48.188;11.566;2023-06-01T00:45:35;17.28;62.87
64111;DHT22;50401;48.188;11.566;2023-06-01T00:48:01;17.28;62.83
64111;DHT22;50401;48.188;11.566;2023-06-01T00:50:26;17.35;62.73
64111;DHT22;50401;48.188;11.566;2023-06-01T00:52:52;17.27;62.84
64111;DHT22;50401;48.188;11.566;2023-06-01T00:55:19;17.20;62.95
64111;DHT22;50401;48.188;11.566;2023-06-01T00:57:46;17.20;62.98
64111;DHT22;50401;48.188;11.566;2023-06-01T01:00:12;17.09;63.13
64111;DHT22;50401;48.188;11.566;2023-06-01T01:02:41;16.98;63.47
64111;DHT22;50401;48.188;11.566;2023-06-01T01:05:10;16.96;63.58
64111;DHT22;50401;48.188;11.566;2023-06-01T01:07:55;16.99;63.60
64111;DHT22;50401;48.188;11.566;2023-06-01T01:10:41;16.96;63.62
64111;DHT22;50401;48.188;11.566;2023-06-01T01:13:13;16.99;63.72
64111;DHT22;50401;48.188;11.566;2023-06-01T01:16:14;16.98;63.65
64111;DHT22;50401;48.188;11.566;2023-06-01T01:18:51;16.95;63.72
64111;DHT22;50401;48.188;11.566;2023-06-01T01:21:21;16.85;64.03
64111;DHT22;50401;48.188;11.566;2023-06-01T01:24:05;16.79;64.25
64111;DHT22;50401;48.188;11.566;2023-06-01T01:29:15;16.85;64.04
64111;DHT22;50401;48.188;11.566;2023-06-01T01:31:41;16.85;64.08
64111;DHT22;50401;48.188;11.566;2023-06-01T01:34:08;16.89;64.03
64111;DHT22;50401;48.188;11.566;2023-06-01T01:36:34;16.91;64.04
64111;DHT22;50401;48.188;11.566;2023-06-01T01:39:01;16.85;64.10
64111;DHT22;50401;48.188;11.566;2023-06-01T01:41:27;16.82;64.18
64111;DHT22;50401;48.188;11.566;2023-06-01T01:43:53;16.91;64.04
64111;DHT22;50401;48.188;11.566;2023-06-01T01:46:26;16.85;64.12
64111;DHT22;50401;48.188;11.566;2023-06-01T01:54:06;16.79;64.20
64111;DHT22;50401;48.188;11.566;2023-06-01T01:56:35;16.81;64.22
64111;DHT22;50401;48.188;11.566;2023-06-01T01:59:01;16.74;64.16
64111;DHT22;50401;48.188;11.566;2023-06-01T02:01:27;16.63;64.37
64111;DHT22;50401;48.188;11.566;2023-06-01T02:04:01;16.64;64.45
64111;DHT22;50401;48.188;11.566;2023-06-01T02:06:26;16.60;64.52
64111;DHT22;50401;48.188;11.566;2023-06-01T02:08:52;16.58;64.38
64111;DHT22;50401;48.188;11.566;2023-06-01T02:11:17;16.47;64.55
64111;DHT22;50401;48.188;11.566;2023-06-01T02:13:43;16.44;64.90
64111;DHT22;50401;48.188;11.566;2023-06-01T02:16:08;16.32;65.42
64111;DHT22;50401;48.188;11.566;2023-06-01T02:18:33;16.32;65.45
64111;DHT22;50401;48.188;11.566;2023-06-01T02:21:00;16.10;65.86
64111;DHT22;50401;48.188;11.566;2023-06-01T02:23:25;16.13;66.11
64111;DHT22;50401;48.188;11.566;2023-06-01T02:25:51;16.24;65.80
64111;DHT22;50401;48.188;11.566;2023-06-01T02:28:17;16.27;65.54
64111;DHT22;50401;48.188;11.566;2023-06-01T02:30:42;16.34;65.38
64111;DHT22;50401;48.188;11.566;2023-06-01T02:33:07;16.29;65.59
64111;DHT22;50401;48.188;11.566;2023-06-01T02:35:33;16.30;65.66
64111;DHT22;50401;48.188;11.566;2023-06-01T02:37:58;16.27;65.70
64111;DHT22;50401;48.188;11.566;2023-06-01T02:40:23;16.29;65.68
64111;DHT22;50401;48.188;11.566;2023-06-01T02:42:49;15.84;66.75
64111;DHT22;50401;48.188;11.566;2023-06-01T02:45:14;15.88;66.88
64111;DHT22;50401;48.188;11.566;2023-06-01T02:47:39;15.97;66.52
64111;DHT22;50401;48.188;11.566;2023-06-01T02:50:05;16.04;66.28
64111;DHT22;50401;48.188;11.566;2023-06-01T02:52:31;16.15;65.96
64111;DHT22;50401;48.188;11.566;2023-06-01T02:54:56;16.17;65.82
64111;DHT22;50401;48.188;11.566;2023-06-01T02:57:24;16.17;65.55
64111;DHT22;50401;48.188;11.566;2023-06-01T02:59:52;16.13;65.63
64111;DHT22;50401;48.188;11.566;2023-06-01T03:02:18;16.12;65.62
64111;DHT22;50401;48.188;11.566;2023-06-01T03:04:43;16.16;65.47
64111;DHT22;50401;48.188;11.566;2023-06-01T03:07:10;16.12;65.40
64111;DHT22;50401;48.188;11.566;2023-06-01T03:09:36;16.15;65.36
64111;DHT22;50401;48.188;11.566;2023-06-01T03:12:02;16.17;64.96
64111;DHT22;50401;48.188;11.566;2023-06-01T03:14:28;16.13;64.82
64111;DHT22;50401;48.188;11.566;2023-06-01T03:16:53;16.09;64.89
64111;DHT22;50401;48.188;11.566;2023-06-01T03:19:18;16.16;64.99
64111;DHT22;50401;48.188;11.566;2023-06-01T03:21:43;16.16;64.98
64111;DHT22;50401;48.188;11.566;2023-06-01T03:24:09;16.15;64.75
64111;DHT22;50401;48.188;11.566;2023-06-01T03:26:37;16.19;64.40
64111;DHT22;50401;48.188;11.566;2023-06-01T03:29:02;16.24;64.08
64111;DHT22;50401;48.188;11.566;2023-06-01T03:31:27;16.09;64.60
64111;DHT22;50401;48.188;11.566;2023-06-01T03:33:53;16.05;64.65
64111;DHT22;50401;48.188;11.566;2023-06-01T03:36:18;16.13;64.44
64111;DHT22;50401;48.188;11.566;2023-06-01T03:38:44;16.13;64.37
64111;DHT22;50401;48.188;11.566;2023-06-01T03:41:09;16.10;64.47
64111;DHT22;50401;48.188;11.566;2023-06-01T03:43:35;16.09;64.56
64111;DHT22;50401;48.188;11.566;2023-06-01T03:46:00;16.12;64.36
64111;DHT22;50401;48.188;11.566;2023-06-01T03:48:25;16.19;64.27
64111;DHT22;50401;48.188;11.566;2023-06-01T03:50:51;16.26;64.00
64111;DHT22;50401;48.188;11.566;2023-06-01T03:53:16;16.23;64.00
64111;DHT22;50401;48.188;11.566;2023-06-01T03:55:41;16.33;63.73
64111;DHT22;50401;48.188;11.566;2023-06-01T03:58:07;16.37;63.57
64111;DHT22;50401;48.188;11.566;2023-06-01T04:00:32;16.29;63.73
64111;DHT22;50401;48.188;11.566;2023-06-01T04:02:58;16.33;63.51
64111;DHT22;50401;48.188;11.566;2023-06-01T04:05:25;16.34;63.43
64111;DHT22;50401;48.188;11.566;2023-06-01T04:07:52;16.43;63.25
64111;DHT22;50401;48.188;11.566;2023-06-01T04:10:19;16.48;63.03
64111;DHT22;50401;48.188;11.566;2023-06-01T04:12:47;16.48;62.88
64111;DHT22;50401;48.188;11.566;2023-06-01T04:15:14;16.58;62.82
64111;DHT22;50401;48.188;11.566;2023-06-01T04:17:41;16.65;62.62
64111;DHT22;50401;48.188;11.566;2023-06-01T04:20:09;16.71;62.55
64111;DHT22;50401;48.188;11.566;2023-06-01T04:22:36;16.78;62.32
64111;DHT22;50401;48.188;11.566;2023-06-01T04:25:04;16.33;63.13
64111;DHT22;50401;48.188;11.566;2023-06-01T04:27:30;16.56;62.99
64111;DHT22;50401;48.188;11.566;2023-06-01T04:29:55;16.79;62.40
64111;DHT22;50401;48.188;11.566;2023-06-01T04:32:23;17.00;61.82
64111;DHT22;50401;48.188;11.566;2023-06-01T04:34:49;17.10;61.50
64111;DHT22;50401;48.188;11.566;2023-06-01T04:37:15;17.12;61.20
64111;DHT22;50401;48.188;11.566;2023-06-01T04:39:45;17.22;61.19
64111;DHT22;50401;48.188;11.566;2023-06-01T04:42:14;17.44;60.94
64111;DHT22;50401;48.188;11.566;2023-06-01T04:44:39;17.58;60.82
64111;DHT22;50401;48.188;11.566;2023-06-01T04:47:07;17.74;59.95
64111;DHT22;50401;48.188;11.566;2023-06-01T04:49:32;17.89;59.55
64111;DHT22;50401;48.188;11.566;2023-06-01T04:51:57;17.89;59.51
64111;DHT22;50401;48.188;11.566;2023-06-01T04:54:23;18.16;59.35
64111;DHT22;50401;48.188;11.566;2023-06-01T04:56:48;18.43;58.66
64111;DHT22;50401;48.188;11.566;2023-06-01T04:59:14;18.69;57.61
64111;DHT22;50401;48.188;11.566;2023-06-01T05:01:40;18.87;57.08
64111;DHT22;50401;48.188;11.566;2023-06-01T05:04:05;19.17;56.45
64111;DHT22;50401;48.188;11.566;2023-06-01T05:06:31;19.51;56.06
64111;DHT22;50401;48.188;11.566;2023-06-01T05:08:57;19.79;55.00
64111;DHT22;50401;48.188;11.566;2023-06-01T05:11:23;19.44;55.14
64111;DHT22;50401;48.188;11.566;2023-06-01T05:13:49;19.89;53.97
64111;DHT22;50401;48.188;11.566;2023-06-01T05:16:16;19.18;55.60
64111;DHT22;50401;48.188;11.566;2023-06-01T05:18:41;19.45;55.69
64111;DHT22;50401;48.188;11.566;2023-06-01T05:21:07;20.28;54.00
64111;DHT22;50401;48.188;11.566;2023-06-01T05:23:32;20.91;52.02
64111;DHT22;50401;48.188;11.566;2023-06-01T05:25:58;21.61;50.75
64111;DHT22;50401;48.188;11.566;2023-06-01T05:28:29;20.94;51.26
64111;DHT22;50401;48.188;11.566;2023-06-01T05:30:54;21.38;50.82
64111;DHT22;50401;48.188;11.566;2023-06-01T05:33:20;22.06;49.10
64111;DHT22;50401;48.188;11.566;2023-06-01T05:35:46;22.70;47.85
64111;DHT22;50401;48.188;11.566;2023-06-01T05:38:11;23.09;46.83
64111;DHT22;50401;48.188;11.566;2023-06-01T05:40:36;23.30;46.27
64111;DHT22;50401;48.188;11.566;2023-06-01T05:43:02;23.43;45.62
64111;DHT22;50401;48.188;11.566;2023-06-01T05:45:27;23.64;45.67
64111;DHT22;50401;48.188;11.566;2023-06-01T05:47:52;23.91;45.11
64111;DHT22;50401;48.188;11.566;2023-06-01T05:50:19;24.46;44.29
64111;DHT22;50401;48.188;11.566;2023-06-01T05:52:44;24.64;43.43
64111;DHT22;50401;48.188;11.566;2023-06-01T05:55:09;24.69;43.19
64111;DHT22;50401;48.188;11.566;2023-06-01T05:57:35;25.23;42.39
64111;DHT22;50401;48.188;11.566;2023-06-01T06:00:00;25.76;41.28
64111;DHT22;50401;48.188;11.566;2023-06-01T06:02:26;25.09;42.05
64111;DHT22;50401;48.188;11.566;2023-06-01T06:04:51;25.84;41.37
64111;DHT22;50401;48.188;11.566;2023-06-01T06:07:16;25.89;41.05
64111;DHT22;50401;48.188;11.566;2023-06-01T06:09:42;25.92;40.90
64111;DHT22;50401;48.188;11.566;2023-06-01T06:12:07;26.58;39.79
64111;DHT22;50401;48.188;11.566;2023-06-01T06:14:35;25.69;40.85
64111;DHT22;50401;48.188;11.566;2023-06-01T06:17:00;25.86;40.64
64111;DHT22;50401;48.188;11.566;2023-06-01T06:19:27;22.01;48.00
64111;DHT22;50401;48.188;11.566;2023-06-01T06:21:53;24.41;43.99
64111;DHT22;50401;48.188;11.566;2023-06-01T06:24:18;21.90;48.67
64111;DHT22;50401;48.188;11.566;2023-06-01T06:26:43;23.30;46.65
64111;DHT22;50401;48.188;11.566;2023-06-01T06:29:09;23.75;45.13
64111;DHT22;50401;48.188;11.566;2023-06-01T06:31:35;24.79;43.81
64111;DHT22;50401;48.188;11.566;2023-06-01T06:34:01;24.92;43.40
64111;DHT22;50401;48.188;11.566;2023-06-01T06:36:26;26.33;40.38
64111;DHT22;50401;48.188;11.566;2023-06-01T06:38:51;27.45;39.19
64111;DHT22;50401;48.188;11.566;2023-06-01T06:41:17;27.82;38.37
64111;DHT22;50401;48.188;11.566;2023-06-01T06:43:42;27.96;37.98
64111;DHT22;50401;48.188;11.566;2023-06-01T06:46:08;28.53;36.68
64111;DHT22;50401;48.188;11.566;2023-06-01T06:48:33;29.01;36.46
64111;DHT22;50401;48.188;11.566;2023-06-01T06:50:59;29.63;35.82
64111;DHT22;50401;48.188;11.566;2023-06-01T06:53:24;29.70;35.64
64111;DHT22;50401;48.188;11.566;2023-06-01T06:55:49;28.18;37.79
64111;DHT22;50401;48.188;11.566;2023-06-01T06:58:15;28.31;37.28
64111;DHT22;50401;48.188;11.566;2023-06-01T07:00:40;29.15;36.80
64111;DHT22;50401;48.188;11.566;2023-06-01T07:03:06;29.94;35.16
64111;DHT22;50401;48.188;11.566;2023-06-01T07:05:32;27.89;38.50
64111;DHT22;50401;48.188;11.566;2023-06-01T07:07:57;29.59;36.31
64111;DHT22;50401;48.188;11.566;2023-06-01T07:10:23;28.04;37.85
64111;DHT22;50401;48.188;11.566;2023-06-01T07:12:48;28.48;37.85
64111;DHT22;50401;48.188;11.566;2023-06-01T07:15:14;28.38;37.27
64111;DHT22;50401;48.188;11.566;2023-06-01T07:17:39;25.15;42.88
64111;DHT22;50401;48.188;11.566;2023-06-01T07:20:07;25.88;42.56
64111;DHT22;50401;48.188;11.566;2023-06-01T07:22:33;25.78;42.41
64111;DHT22;50401;48.188;11.566;2023-06-01T07:24:58;26.33;42.24
64111;DHT22;50401;48.188;11.566;2023-06-01T07:27:24;27.62;39.82
64111;DHT22;50401;48.188;11.566;2023-06-01T07:29:51;29.15;37.87
64111;DHT22;50401;48.188;11.566;2023-06-01T07:32:21;28.55;38.17
64111;DHT22;50401;48.188;11.566;2023-06-01T07:34:46;25.57;43.46
64111;DHT22;50401;48.188;11.566;2023-06-01T07:37:12;26.76;41.99
64111;DHT22;50401;48.188;11.566;2023-06-01T07:39:37;28.91;38.42
64111;DHT22;50401;48.188;11.566;2023-06-01T07:42:02;30.17;36.41
64111;DHT22;50401;48.188;11.566;2023-06-01T07:44:28;30.91;35.65
64111;DHT22;50401;48.188;11.566;2023-06-01T07:46:53;31.63;34.29
64111;DHT22;50401;48.188;11.566;2023-06-01T07:49:19;29.26;37.68
64111;DHT22;50401;48.188;11.566;2023-06-01T07:51:44;27.26;40.93
64111;DHT22;50401;48.188;11.566;2023-06-01T07:54:10;27.13;40.71
64111;DHT22;50401;48.188;11.566;2023-06-01T07:56:36;28.60;38.90
64111;DHT22;50401;48.188;11.566;2023-06-01T07:59:02;30.55;35.97
64111;DHT22;50401;48.188;11.566;2023-06-01T08:01:27;31.54;34.69
64111;DHT22;50401;48.188;11.566;2023-06-01T08:03:53;29.73;37.47
64111;DHT22;50401;48.188;11.566;2023-06-01T08:06:21;31.40;34.79
64111;DHT22;50401;48.188;11.566;2023-06-01T08:08:48;32.19;34.04
64111;DHT22;50401;48.188;11.566;2023-06-01T08:11:14;30.52;34.97
64111;DHT22;50401;48.188;11.566;2023-06-01T08:13:40;26.78;42.26
64111;DHT22;50401;48.188;11.566;2023-06-01T08:16:06;28.53;39.50
64111;DHT22;50401;48.188;11.566;2023-06-01T08:18:32;29.45;38.16
64111;DHT22;50401;48.188;11.566;2023-06-01T08:20:58;29.43;38.23
64111;DHT22;50401;48.188;11.566;2023-06-01T08:23:26;29.66;37.35
64111;DHT22;50401;48.188;11.566;2023-06-01T08:25:51;29.91;37.43
64111;DHT22;50401;48.188;11.566;2023-06-01T08:28:19;30.02;37.02
64111;DHT22;50401;48.188;11.566;2023-06-01T08:30:45;30.07;37.19
64111;DHT22;50401;48.188;11.566;2023-06-01T08:33:11;28.11;39.31
64111;DHT22;50401;48.188;11.566;2023-06-01T08:35:36;27.97;39.99
64111;DHT22;50401;48.188;11.566;2023-06-01T08:38:02;27.83;40.46
64111;DHT22;50401;48.188;11.566;2023-06-01T08:40:28;27.83;40.95
64111;DHT22;50401;48.188;11.566;2023-06-01T08:45:32;28.75;39.52
64111;DHT22;50401;48.188;11.566;2023-06-01T08:47:58;28.18;40.05
64111;DHT22;50401;48.188;11.566;2023-06-01T08:50:26;27.85;40.60
64111;DHT22;50401;48.188;11.566;2023-06-01T08:52:56;25.81;44.22
64111;DHT22;50401;48.188;11.566;2023-06-01T08:55:22;26.00;44.96
64111;DHT22;50401;48.188;11.566;2023-06-01T08:57:49;26.09;44.06
64111;DHT22;50401;48.188;11.566;2023-06-01T09:00:15;27.23;42.31
64111;DHT22;50401;48.188;11.566;2023-06-01T09:02:41;26.10;43.75
64111;DHT22;50401;48.188;11.566;2023-06-01T09:05:08;26.26;43.76
64111;DHT22;50401;48.188;11.566;2023-06-01T09:07:33;26.41;43.07
64111;DHT22;50401;48.188;11.566;2023-06-01T09:09:59;26.38;43.69
64111;DHT22;50401;48.188;11.566;2023-06-01T09:15:08;26.44;42.39
64111;DHT22;50401;48.188;11.566;2023-06-01T09:17:34;27.21;40.95
64111;DHT22;50401;48.188;11.566;2023-06-01T09:20:02;26.55;41.83
64111;DHT22;50401;48.188;11.566;2023-06-01T09:22:43;26.58;42.39
64111;DHT22;50401;48.188;11.566;2023-06-01T09:25:08;26.73;41.63
64111;DHT22;50401;48.188;11.566;2023-06-01T09:27:42;25.88;43.50
64111;DHT22;50401;48.188;11.566;2023-06-01T09:30:08;26.47;42.14
64111;DHT22;50401;48.188;11.566;2023-06-01T09:32:34;27.03;41.01
64111;DHT22;50401;48.188;11.566;2023-06-01T09:34:59;27.31;41.06
64111;DHT22;50401;48.188;11.566;2023-06-01T09:37:25;26.76;41.21
64111;DHT22;50401;48.188;11.566;2023-06-01T09:39:50;26.40;42.06
64111;DHT22;50401;48.188;11.566;2023-06-01T09:42:16;25.55;43.08
64111;DHT22;50401;48.188;11.566;2023-06-01T09:44:42;25.05;44.43
64111;DHT22;50401;48.188;11.566;2023-06-01T09:47:10;25.17;45.42
64111;DHT22;50401;48.188;11.566;2023-06-01T09:49:41;25.75;43.21
64111;DHT22;50401;48.188;11.566;2023-06-01T09:54:42;25.23;41.16
64111;DHT22;50401;48.188;11.566;2023-06-01T09:57:09;24.36;43.56
64111;DHT22;50401;48.188;11.566;2023-06-01T09:59:52;24.43;44.69
64111;DHT22;50401;48.188;11.566;2023-06-01T10:02:20;25.12;42.45
64111;DHT22;50401;48.188;11.566;2023-06-01T10:04:53;25.30;41.64
64111;DHT22;50401;48.188;11.566;2023-06-01T10:07:22;24.88;41.56
64111;DHT22;50401;48.188;11.566;2023-06-01T10:09:50;25.19;41.87
64111;DHT22;50401;48.188;11.566;2023-06-01T10:12:16;24.75;43.46
64111;DHT22;50401;48.188;11.566;2023-06-01T10:14:42;24.56;43.51
64111;DHT22;50401;48.188;11.566;2023-06-01T10:17:08;24.49;43.61
64111;DHT22;50401;48.188;11.566;2023-06-01T10:19:36;24.24;42.35
64111;DHT22;50401;48.188;11.566;2023-06-01T10:22:03;24.09;43.39
64111;DHT22;50401;48.188;11.566;2023-06-01T10:24:29;24.76;42.65
64111;DHT22;50401;48.188;11.566;2023-06-01T10:27:01;24.57;43.80
64111;DHT22;50401;48.188;11.566;2023-06-01T10:29:30;24.10;44.24
64111;DHT22;50401;48.188;11.566;2023-06-01T10:31:57;24.74;44.16
64111;DHT22;50401;48.188;11.566;2023-06-01T10:34:52;24.76;44.43
64111;DHT22;50401;48.188;11.566;2023-06-01T10:37:17;24.56;44.72
64111;DHT22;50401;48.188;11.566;2023-06-01T10:39:43;24.86;44.19
64111;DHT22;50401;48.188;11.566;2023-06-01T10:57:46;24.85;43.23
64111;DHT22;50401;48.188;11.566;2023-06-01T11:05:49;24.86;43.16
64111;DHT22;50401;48.188;11.566;2023-06-01T11:13:16;24.86;42.71
64111;DHT22;50401;48.188;11.566;2023-06-01T11:18:43;24.96;41.99
64111;DHT22;50401;48.188;11.566;2023-06-01T11:21:16;24.51;43.37
64111;DHT22;50401;48.188;11.566;2023-06-01T11:23:42;24.60;44.17
64111;DHT22;50401;48.188;11.566;2023-06-01T11:26:08;24.89;42.86
64111;DHT22;50401;48.188;11.566;2023-06-01T11:28:34;24.91;43.08
64111;DHT22;50401;48.188;11.566;2023-06-01T11:31:02;24.82;43.48
64111;DHT22;50401;48.188;11.566;2023-06-01T11:33:29;24.86;43.61
64111;DHT22;50401;48.188;11.566;2023-06-01T11:35:59;24.56;43.60
64111;DHT22;50401;48.188;11.566;2023-06-01T11:38:35;24.43;43.21
64111;DHT22;50401;48.188;11.566;2023-06-01T11:41:02;24.78;43.38
64111;DHT22;50401;48.188;11.566;2023-06-01T11:43:31;24.82;43.35
64111;DHT22;50401;48.188;11.566;2023-06-01T11:46:04;24.44;43.68
64111;DHT22;50401;48.188;11.566;2023-06-01T11:48:31;24.37;43.47
64111;DHT22;50401;48.188;11.566;2023-06-01T11:50:57;24.56;43.89
64111;DHT22;50401;48.188;11.566;2023-06-01T11:53:26;24.64;43.96
64111;DHT22;50401;48.188;11.566;2023-06-01T11:55:55;24.64;44.30
64111;DHT22;50401;48.188;11.566;2023-06-01T11:58:29;24.54;44.70
64111;DHT22;50401;48.188;11.566;2023-06-01T12:00:56;24.91;44.31
64111;DHT22;50401;48.188;11.566;2023-06-01T12:03:23;25.03;43.78
64111;DHT22;50401;48.188;11.566;2023-06-01T12:05:52;25.12;43.81
64111;DHT22;50401;48.188;11.566;2023-06-01T12:08:21;25.02;43.62
64111;DHT22;50401;48.188;11.566;2023-06-01T12:10:48;24.78;43.80
64111;DHT22;50401;48.188;11.566;2023-06-01T12:13:20;24.61;44.19
64111;DHT22;50401;48.188;11.566;2023-06-01T12:15:47;24.57;43.52
64111;DHT22;50401;48.188;11.566;2023-06-01T12:18:12;24.85;43.30
64111;DHT22;50401;48.188;11.566;2023-06-01T12:20:40;25.06;43.21
64111;DHT22;50401;48.188;11.566;2023-06-01T12:23:14;25.28;42.75
64111;DHT22;50401;48.188;11.566;2023-06-01T12:25:56;25.43;42.90
64111;DHT22;50401;48.188;11.566;2023-06-01T12:28:24;25.44;42.47
64111;DHT22;50401;48.188;11.566;2023-06-01T12:31:12;25.51;42.44
64111;DHT22;50401;48.188;11.566;2023-06-01T12:33:38;25.58;42.95
64111;DHT22;50401;48.188;11.566;2023-06-01T12:36:05;25.20;42.77
64111;DHT22;50401;48.188;11.566;2023-06-01T12:38:51;25.22;42.97
64111;DHT22;50401;48.188;11.566;2023-06-01T12:41:17;25.41;42.30
64111;DHT22;50401;48.188;11.566;2023-06-01T12:43:50;25.30;42.49
64111;DHT22;50401;48.188;11.566;2023-06-01T12:46:26;25.52;42.14
64111;DHT22;50401;48.188;11.566;2023-06-01T12:48:54;24.68;42.94
64111;DHT22;50401;48.188;11.566;2023-06-01T12:51:20;24.63;43.17
64111;DHT22;50401;48.188;11.566;2023-06-01T12:53:46;25.00;42.90
64111;DHT22;50401;48.188;11.566;2023-06-01T12:56:12;24.93;42.44
64111;DHT22;50401;48.188;11.566;2023-06-01T12:58:38;25.27;42.80
64111;DHT22;50401;48.188;11.566;2023-06-01T13:01:04;25.33;42.70
64111;DHT22;50401;48.188;11.566;2023-06-01T13:03:30;25.35;42.89
64111;DHT22;50401;48.188;11.566;2023-06-01T13:05:55;24.82;43.74
64111;DHT22;50401;48.188;11.566;2023-06-01T13:08:21;25.03;43.45
64111;DHT22;50401;48.188;11.566;2023-06-01T13:10:47;25.30;42.56
64111;DHT22;50401;48.188;11.566;2023-06-01T13:13:13;24.79;43.15
64111;DHT22;50401;48.188;11.566;2023-06-01T13:15:42;24.99;43.24
64111;DHT22;50401;48.188;11.566;2023-06-01T13:18:08;24.98;43.64
64111;DHT22;50401;48.188;11.566;2023-06-01T13:20:35;25.35;43.27
64111;DHT22;50401;48.188;11.566;2023-06-01T13:23:01;25.52;42.56
64111;DHT22;50401;48.188;11.566;2023-06-01T13:25:29;25.68;41.84
64111;DHT22;50401;48.188;11.566;2023-06-01T13:27:55;25.79;41.90
64111;DHT22;50401;48.188;11.566;2023-06-01T13:30:23;25.99;41.33
64111;DHT22;50401;48.188;11.566;2023-06-01T13:32:48;25.82;40.91
64111;DHT22;50401;48.188;11.566;2023-06-01T13:35:17;25.86;41.43
64111;DHT22;50401;48.188;11.566;2023-06-01T13:37:44;25.79;41.10
64111;DHT22;50401;48.188;11.566;2023-06-01T13:40:09;25.58;41.66
64111;DHT22;50401;48.188;11.566;2023-06-01T13:42:35;25.62;41.56
64111;DHT22;50401;48.188;11.566;2023-06-01T13:45:01;25.65;41.30
64111;DHT22;50401;48.188;11.566;2023-06-01T13:47:27;25.72;41.35
64111;DHT22;50401;48.188;11.566;2023-06-01T13:49:52;25.75;41.39
64111;DHT22;50401;48.188;11.566;2023-06-01T13:52:18;25.38;42.07
64111;DHT22;50401;48.188;11.566;2023-06-01T13:54:43;25.50;41.80
64111;DHT22;50401;48.188;11.566;2023-06-01T13:57:09;25.61;41.04
64111;DHT22;50401;48.188;11.566;2023-06-01T13:59:35;25.68;41.14
64111;DHT22;50401;48.188;11.566;2023-06-01T14:02:02;25.68;40.65
64111;DHT22;50401;48.188;11.566;2023-06-01T14:04:28;25.68;40.63
64111;DHT22;50401;48.188;11.566;2023-06-01T14:06:54;25.55;40.60
64111;DHT22;50401;48.188;11.566;2023-06-01T14:09:21;25.64;40.26
64111;DHT22;50401;48.188;11.566;2023-06-01T14:11:46;25.74;40.60
64111;DHT22;50401;48.188;11.566;2023-06-01T14:14:12;25.88;40.76
64111;DHT22;50401;48.188;11.566;2023-06-01T14:16:37;26.04;40.32
64111;DHT22;50401;48.188;11.566;2023-06-01T14:19:03;26.06;39.41
64111;DHT22;50401;48.188;11.566;2023-06-01T14:21:29;26.03;39.28
64111;DHT22;50401;48.188;11.566;2023-06-01T14:23:56;26.04;39.63
64111;DHT22;50401;48.188;11.566;2023-06-01T14:26:21;26.12;39.76
64111;DHT22;50401;48.188;11.566;2023-06-01T14:28:47;26.21;39.18
64111;DHT22;50401;48.188;11.566;2023-06-01T14:31:12;26.21;39.35
64111;DHT22;50401;48.188;11.566;2023-06-01T14:33:38;26.09;39.96
64111;DHT22;50401;48.188;11.566;2023-06-01T14:36:03;26.21;39.99
64111;DHT22;50401;48.188;11.566;2023-06-01T14:38:30;26.20;39.62
64111;DHT22;50401;48.188;11.566;2023-06-01T14:40:55;25.97;38.54
64111;DHT22;50401;48.188;11.566;2023-06-01T14:43:20;26.09;38.43
64111;DHT22;50401;48.188;11.566;2023-06-01T14:45:46;26.21;38.35
64111;DHT22;50401;48.188;11.566;2023-06-01T14:48:11;26.23;37.72
64111;DHT22;50401;48.188;11.566;2023-06-01T14:50:36;26.26;36.54
64111;DHT22;50401;48.188;11.566;2023-06-01T14:53:02;26.14;36.58
64111;DHT22;50401;48.188;11.566;2023-06-01T14:55:28;26.10;36.84
64111;DHT22;50401;48.188;11.566;2023-06-01T14:57:54;25.99;34.98
64111;DHT22;50401;48.188;11.566;2023-06-01T15:00:22;25.92;35.32
64111;DHT22;50401;48.188;11.566;2023-06-01T15:02:48;25.96;35.91
64111;DHT22;50401;48.188;11.566;2023-06-01T15:05:13;26.02;36.97
64111;DHT22;50401;48.188;11.566;2023-06-01T15:07:39;26.07;37.41
64111;DHT22;50401;48.188;11.566;2023-06-01T15:10:05;26.04;37.72
64111;DHT22;50401;48.188;11.566;2023-06-01T15:12:30;25.97;37.83
64111;DHT22;50401;48.188;11.566;2023-06-01T15:14:56;26.00;38.15
64111;DHT22;50401;48.188;11.566;2023-06-01T15:17:22;25.97;37.57
64111;DHT22;50401;48.188;11.566;2023-06-01T15:19:50;26.00;38.01
64111;DHT22;50401;48.188;11.566;2023-06-01T15:22:15;26.02;38.28
64111;DHT22;50401;48.188;11.566;2023-06-01T15:24:41;26.00;38.34
64111;DHT22;50401;48.188;11.566;2023-06-01T15:27:09;25.93;37.78
64111;DHT22;50401;48.188;11.566;2023-06-01T15:29:35;25.89;37.62
64111;DHT22;50401;48.188;11.566;2023-06-01T15:32:04;25.79;38.07
64111;DHT22;50401;48.188;11.566;2023-06-01T15:34:29;25.69;38.43
64111;DHT22;50401;48.188;11.566;2023-06-01T15:36:55;25.65;38.95
64111;DHT22;50401;48.188;11.566;2023-06-01T15:39:23;25.60;39.45
64111;DHT22;50401;48.188;11.566;2023-06-01T15:41:49;25.54;39.05
64111;DHT22;50401;48.188;11.566;2023-06-01T15:44:14;25.28;39.59
64111;DHT22;50401;48.188;11.566;2023-06-01T15:46:40;25.41;39.48
64111;DHT22;50401;48.188;11.566;2023-06-01T15:49:05;25.45;39.43
64111;DHT22;50401;48.188;11.566;2023-06-01T15:51:31;25.57;39.77
64111;DHT22;50401;48.188;11.566;2023-06-01T15:53:58;25.65;39.95
64111;DHT22;50401;48.188;11.566;2023-06-01T15:56:23;25.78;39.98
64111;DHT22;50401;48.188;11.566;2023-06-01T15:58:49;25.75;39.16